KBJC

Rocky Mountain Metropolitan Airport

Denver, Colorado, USA
METAR KBJC 212249Z 00000KT 14SM SCT013 SCT025 OVC055 04/02 A3019
Observed Flight Rules
Apr-21 @ 22:49 UTC (13 minutes ago) Visual Flight Rules
Visibility Clouds
14 miles
  • Scattered at 1,300' AGL
  • Scattered at 2,500' AGL
  • Overcast at 5,500' AGL
Temperatures Readings
Current 4°C / 39°F
Dewpoint 2°C / 36°F
Humidity 87%
Altimeter 30.19" Hg
Pressure 1022 hPa
Elevation 1724
METAR KBJC 212249Z 00000KT 14SM SCT013 SCT025 OVC055 04/02 A3019
Observed Flight Rules
Apr-21 @ 22:49 UTC
(13 minutes ago)
VFR
Clouds
  • Scattered at 1,300' AGL
  • Scattered at 2,500' AGL
  • Overcast at 5,500' AGL
Temperature Dewpoint
4°C / 39°F 2°C / 36°F
Humidity Altimeter Pressure
87% 30.19" Hg 1022 hPa